Time,TemperatureF,DewpointF,PressureIn,WindDirection,WindDirectionDegrees,WindSpeedMPH,WindSpeedGustMPH,Humidity,HourlyPrecipIn,Conditions,Clouds,dailyrainin,SoftwareType,DateUTC
2015-05-30 00:02:00,64.0,40.0,-100.00,SE,134,1.0,4.0,42,-99.99,,,-99.99,,2015-05-30 07:02:00,
2015-05-30 00:11:00,64.0,40.0,-100.00,SE,134,1.0,4.0,42,-99.99,,,-99.99,,2015-05-30 07:11:00,
2015-05-30 00:21:00,64.0,40.0,-100.00,SE,134,1.0,4.0,42,-99.99,,,-99.99,,2015-05-30 07:21:00,
2015-05-30 00:31:00,64.0,40.0,-100.00,SE,134,1.0,4.0,42,-99.99,,,-99.99,,2015-05-30 07:31:00,
2015-05-30 01:03:00,64.0,42.0,-100.00,SE,139,4.0,6.0,45,-99.99,,,-99.99,,2015-05-30 08:03:00,
2015-05-30 01:11:00,64.0,42.0,-100.00,SE,139,4.0,6.0,45,-99.99,,,-99.99,,2015-05-30 08:11:00,
2015-05-30 01:21:00,64.0,42.0,-100.00,SE,139,4.0,6.0,45,-99.99,,,-99.99,,2015-05-30 08:21:00,
2015-05-30 01:31:00,64.0,42.0,-100.00,SE,139,4.0,6.0,45,-99.99,,,-99.99,,2015-05-30 08:31:00,
2015-05-30 02:01:00,64.0,42.0,-100.00,SE,128,5.0,8.0,45,-99.99,,,-99.99,,2015-05-30 09:01:00,
2015-05-30 02:11:00,64.0,42.0,-100.00,SE,128,5.0,8.0,45,-99.99,,,-99.99,,2015-05-30 09:11:00,
2015-05-30 02:21:00,64.0,42.0,-100.00,SE,128,5.0,8.0,45,-99.99,,,-99.99,,2015-05-30 09:21:00,
2015-05-30 02:31:00,64.0,42.0,-100.00,SE,128,5.0,8.0,45,-99.99,,,-99.99,,2015-05-30 09:31:00,
2015-05-30 03:01:00,63.0,41.0,-100.00,SE,136,5.0,11.0,44,-99.99,,,-99.99,,2015-05-30 10:01:00,
2015-05-30 03:11:00,63.0,41.0,-100.00,SE,136,5.0,11.0,44,-99.99,,,-99.99,,2015-05-30 10:11:00,
2015-05-30 03:21:00,63.0,41.0,-100.00,SE,136,5.0,11.0,44,-99.99,,,-99.99,,2015-05-30 10:21:00,
2015-05-30 03:31:00,63.0,41.0,-100.00,SE,136,5.0,11.0,44,-99.99,,,-99.99,,2015-05-30 10:31:00,
2015-05-30 04:01:00,63.0,41.0,-100.00,SSE,151,3.0,10.0,45,-99.99,,,-99.99,,2015-05-30 11:01:00,
2015-05-30 04:11:00,63.0,41.0,-100.00,SSE,151,3.0,10.0,45,-99.99,,,-99.99,,2015-05-30 11:11:00,
2015-05-30 04:21:00,63.0,41.0,-100.00,SSE,151,3.0,10.0,45,-99.99,,,-99.99,,2015-05-30 11:21:00,
2015-05-30 04:31:00,63.0,41.0,-100.00,SSE,151,3.0,10.0,45,-99.99,,,-99.99,,2015-05-30 11:31:00,
2015-05-30 05:01:00,63.0,40.0,-100.00,SSE,165,1.0,5.0,43,-99.99,,,-99.99,,2015-05-30 12:01:00,
2015-05-30 05:11:00,63.0,40.0,-100.00,SSE,165,1.0,5.0,43,-99.99,,,-99.99,,2015-05-30 12:11:00,
2015-05-30 05:21:00,63.0,40.0,-100.00,SSE,165,1.0,5.0,43,-99.99,,,-99.99,,2015-05-30 12:21:00,
2015-05-30 05:31:00,63.0,40.0,-100.00,SSE,165,1.0,5.0,43,-99.99,,,-99.99,,2015-05-30 12:31:00,
2015-05-30 06:02:00,63.0,37.0,-100.00,SE,136,3.0,6.0,38,-99.99,,,-99.99,,2015-05-30 13:02:00,
2015-05-30 06:11:00,63.0,37.0,-100.00,SE,136,3.0,6.0,38,-99.99,,,-99.99,,2015-05-30 13:11:00,
2015-05-30 06:21:00,63.0,37.0,-100.00,SE,136,3.0,6.0,38,-99.99,,,-99.99,,2015-05-30 13:21:00,
2015-05-30 06:31:00,63.0,37.0,-100.00,SE,136,3.0,6.0,38,-99.99,,,-99.99,,2015-05-30 13:31:00,
2015-05-30 07:01:00,63.0,36.0,-100.00,SE,139,3.0,6.0,37,-99.99,,,-99.99,,2015-05-30 14:01:00,
2015-05-30 07:11:00,63.0,36.0,-100.00,SE,139,3.0,6.0,37,-99.99,,,-99.99,,2015-05-30 14:11:00,
2015-05-30 07:21:00,63.0,36.0,-100.00,SE,139,3.0,6.0,37,-99.99,,,-99.99,,2015-05-30 14:21:00,
2015-05-30 07:31:00,63.0,36.0,-100.00,SE,139,3.0,6.0,37,-99.99,,,-99.99,,2015-05-30 14:31:00,
2015-05-30 08:01:00,65.0,40.0,-100.00,SE,133,4.0,9.0,40,-99.99,,,-99.99,,2015-05-30 15:01:00,
2015-05-30 08:11:00,65.0,40.0,-100.00,SE,133,4.0,9.0,40,-99.99,,,-99.99,,2015-05-30 15:11:00,
2015-05-30 08:21:00,65.0,40.0,-100.00,SE,133,4.0,9.0,40,-99.99,,,-99.99,,2015-05-30 15:21:00,
2015-05-30 08:31:00,65.0,40.0,-100.00,SE,133,4.0,9.0,40,-99.99,,,-99.99,,2015-05-30 15:31:00,
2015-05-30 10:11:00,73.0,38.0,-100.00,SE,142,7.0,14.0,28,-99.99,,,-99.99,,2015-05-30 17:11:00,